Time;durP1;ratioP1;P1;durP2;ratioP2;P2;SDS_P1;SDS_P2;PMS_P1;PMS_P2;Temp;Humidity;BMP_temperature;BMP_pressure;BME280_temperature;BME280_humidity;BME280_pressure;Samples;Min_cycle;Max_cycle;Signal;HPM_P1;HPM_P2
2023/06/04 00:01:47;;;;;;;2.60;1.83;;;13.80;99.90;;;;;;5054693;28;20235;-88
2023/06/04 00:04:14;;;;;;;2.10;1.33;;;13.80;99.90;;;;;;5073353;28;20553;-87
2023/06/04 00:06:45;;;;;;;3.10;2.20;;;13.70;99.90;;;;;;5054724;28;20224;-88
2023/06/04 00:09:15;;;;;;;3.90;2.17;;;13.70;99.90;;;;;;5051498;28;20298;-89
2023/06/04 00:11:45;;;;;;;3.17;1.80;;;13.70;99.90;;;;;;5051053;28;20251;-88
2023/06/04 00:14:17;;;;;;;2.50;2.00;;;13.60;99.90;;;;;;5051067;28;20212;-89
2023/06/04 00:16:45;;;;;;;2.90;1.83;;;13.60;99.90;;;;;;5067432;28;20303;-86
2023/06/04 00:19:12;;;;;;;5.27;2.10;;;13.50;99.90;;;;;;5066744;28;20296;-89
2023/06/04 00:21:41;;;;;;;2.93;1.90;;;13.50;99.90;;;;;;5044181;28;20251;-86
2023/06/04 00:24:12;;;;;;;3.30;2.17;;;13.30;99.90;;;;;;5057835;28;20239;-88
2023/06/04 00:26:40;;;;;;;3.40;2.10;;;13.40;99.90;;;;;;5059311;28;20211;-89
2023/06/04 00:29:07;;;;;;;4.80;2.67;;;13.30;99.90;;;;;;5063845;28;20211;-88
2023/06/04 00:31:35;;;;;;;2.87;2.00;;;13.30;99.90;;;;;;5077772;28;20235;-86
2023/06/04 00:34:05;;;;;;;3.87;1.90;;;13.10;99.90;;;;;;5058644;28;20234;-89
2023/06/04 00:36:32;;;;;;;2.27;1.93;;;13.20;99.90;;;;;;5061506;28;20762;-87
2023/06/04 00:39:02;;;;;;;5.07;2.30;;;13.20;99.90;;;;;;5054469;28;20209;-87
2023/06/04 00:41:30;;;;;;;2.60;1.97;;;13.10;99.90;;;;;;5049930;28;20239;-87
2023/06/04 00:43:57;;;;;;;3.00;1.90;;;13.10;99.90;;;;;;5058182;28;20385;-86
2023/06/04 00:46:26;;;;;;;4.40;2.00;;;13.10;99.90;;;;;;5063973;28;20245;-86
2023/06/04 00:48:58;;;;;;;4.10;2.23;;;13.00;99.90;;;;;;5072925;28;20288;-87
2023/06/04 00:51:32;;;;;;;5.20;2.10;;;13.00;99.90;;;;;;5054910;28;20262;-87
2023/06/04 00:54:08;;;;;;;2.80;2.50;;;12.90;99.90;;;;;;5055522;28;20203;-86
2023/06/04 00:56:38;;;;;;;3.73;2.20;;;12.80;99.90;;;;;;5047801;28;20268;-87
2023/06/04 00:59:07;;;;;;;2.60;2.27;;;12.80;99.90;;;;;;5053995;28;20206;-86
2023/06/04 01:01:40;;;;;;;2.87;1.80;;;12.70;99.90;;;;;;5068397;28;20219;-85
2023/06/04 01:04:17;;;;;;;3.63;2.67;;;12.80;99.90;;;;;;5056543;28;20219;-88
2023/06/04 01:06:48;;;;;;;5.03;2.67;;;13.60;99.90;;;;;;5056160;28;20562;-89
2023/06/04 01:09:22;;;;;;;4.53;2.30;;;12.80;99.90;;;;;;5053326;28;20325;-87
2023/06/04 01:11:49;;;;;;;3.93;2.20;;;12.60;99.90;;;;;;5054613;28;20227;-87
2023/06/04 01:14:18;;;;;;;4.83;2.70;;;12.40;99.90;;;;;;5056060;28;20338;-87
2023/06/04 01:17:15;;;;;;;2.90;2.30;;;12.40;99.90;;;;;;5072959;28;20224;-85
2023/06/04 01:20:34;;;;;;;6.07;2.83;;;12.30;99.90;;;;;;5040957;28;20214;-87
2023/06/04 01:23:28;;;;;;;8.27;2.40;;;12.30;99.90;;;;;;4954814;28;20262;-86
2023/06/04 01:25:57;;;;;;;4.60;2.73;;;12.20;99.90;;;;;;4954600;28;20238;-86
2023/06/04 01:28:29;;;;;;;4.50;2.67;;;12.10;99.90;;;;;;5038373;28;20241;-86
2023/06/04 01:30:59;;;;;;;3.87;2.80;;;12.10;99.90;;;;;;5069006;28;20261;-89
2023/06/04 01:33:27;;;;;;;3.63;2.80;;;12.00;99.90;;;;;;5053058;28;20218;-88
2023/06/04 01:35:54;;;;;;;5.60;2.23;;;12.00;99.90;;;;;;5063646;28;20610;-90
2023/06/04 01:38:24;;;;;;;7.70;3.20;;;12.20;99.90;;;;;;5072518;28;20212;-88
2023/06/04 01:40:56;;;;;;;5.23;2.70;;;11.80;99.90;;;;;;5068333;28;20212;-86
2023/06/04 01:43:23;;;;;;;3.47;2.40;;;12.00;99.90;;;;;;5051952;28;20376;-87
2023/06/04 01:45:50;;;;;;;3.67;2.57;;;11.90;99.90;;;;;;5053592;28;20301;-86
2023/06/04 01:48:17;;;;;;;2.90;2.60;;;12.10;99.90;;;;;;5036704;28;20229;-86
2023/06/04 01:50:47;;;;;;;6.53;2.70;;;11.80;99.90;;;;;;5026868;28;20221;-85
2023/06/04 01:53:14;;;;;;;5.40;2.67;;;12.30;99.90;;;;;;5036946;28;20222;-85
2023/06/04 01:55:49;;;;;;;4.67;2.67;;;12.50;99.90;;;;;;5036929;28;20215;-87
2023/06/04 01:58:27;;;;;;;3.30;2.57;;;11.80;99.90;;;;;;5030084;28;20290;-86
2023/06/04 02:00:59;;;;;;;6.03;2.83;;;11.70;99.90;;;;;;5035600;28;20222;-86
2023/06/04 02:03:27;;;;;;;4.27;2.57;;;11.60;99.90;;;;;;5028504;28;20975;-87
2023/06/04 02:05:56;;;;;;;2.80;2.33;;;11.60;99.90;;;;;;5023727;28;20227;-87
2023/06/04 02:08:25;;;;;;;5.97;2.77;;;11.60;99.90;;;;;;5027471;28;20214;-88
2023/06/04 02:10:52;;;;;;;4.57;2.47;;;11.60;99.90;;;;;;5029027;28;20608;-85
2023/06/04 02:13:19;;;;;;;2.90;2.50;;;11.50;99.90;;;;;;5029436;28;20252;-87
2023/06/04 02:15:50;;;;;;;4.30;2.70;;;11.50;99.90;;;;;;5023743;28;20599;-86
2023/06/04 02:18:22;;;;;;;4.33;2.70;;;11.50;99.90;;;;;;5022551;28;20206;-88
2023/06/04 02:20:50;;;;;;;3.83;2.30;;;11.50;99.90;;;;;;5027743;28;20234;-87
2023/06/04 02:23:19;;;;;;;7.93;2.67;;;11.40;99.90;;;;;;5030110;28;20194;-85
2023/06/04 02:25:50;;;;;;;4.20;2.50;;;11.40;99.90;;;;;;5029592;28;20563;-87
2023/06/04 02:28:18;;;;;;;3.53;2.67;;;11.30;99.90;;;;;;5027065;28;20581;-86
2023/06/04 02:30:53;;;;;;;4.67;2.87;;;11.30;99.90;;;;;;5024945;28;20689;-88
2023/06/04 02:33:23;;;;;;;3.30;2.27;;;11.30;99.90;;;;;;5026752;28;20284;-88
2023/06/04 02:35:50;;;;;;;4.70;2.60;;;11.40;99.90;;;;;;5025062;28;20218;-86
2023/06/04 02:38:20;;;;;;;4.07;2.77;;;11.30;99.90;;;;;;5028296;28;20198;-85
2023/06/04 02:40:48;;;;;;;4.07;2.90;;;11.30;99.90;;;;;;5026644;28;20233;-87
2023/06/04 02:43:18;;;;;;;5.70;3.03;;;11.30;99.90;;;;;;5022161;28;20198;-87
2023/06/04 02:45:44;;;;;;;4.10;2.50;;;11.30;99.90;;;;;;5028524;28;20260;-87
2023/06/04 02:48:14;;;;;;;4.50;2.57;;;11.20;99.90;;;;;;5025268;28;20242;-86
2023/06/04 02:50:42;;;;;;;5.47;2.53;;;11.30;99.90;;;;;;5026939;28;20589;-87
2023/06/04 02:53:09;;;;;;;5.97;3.03;;;11.20;99.90;;;;;;5024543;28;20225;-86
2023/06/04 02:55:36;;;;;;;2.90;2.33;;;11.20;99.90;;;;;;5022909;28;20210;-86
2023/06/04 02:58:03;;;;;;;3.53;2.60;;;11.20;99.90;;;;;;5025440;28;20221;-87
2023/06/04 03:00:30;;;;;;;3.47;2.60;;;11.10;99.90;;;;;;5015510;28;20213;-87
2023/06/04 03:03:01;;;;;;;5.07;3.10;;;11.10;99.90;;;;;;5025557;28;20218;-88
2023/06/04 03:05:33;;;;;;;5.33;2.77;;;11.10;99.90;;;;;;5021977;28;20371;-87
2023/06/04 03:08:02;;;;;;;4.63;2.60;;;11.10;99.90;;;;;;5020259;28;20226;-85
2023/06/04 03:10:31;;;;;;;4.63;2.60;;;11.00;99.90;;;;;;5026350;28;20221;-86
2023/06/04 03:12:59;;;;;;;7.23;3.10;;;11.00;99.90;;;;;;5021257;28;20229;-87
2023/06/04 03:15:28;;;;;;;4.10;2.70;;;11.00;99.90;;;;;;5024739;28;20206;-86
2023/06/04 03:17:56;;;;;;;7.23;3.00;;;11.00;99.90;;;;;;5024102;28;20284;-86
2023/06/04 03:20:24;;;;;;;3.87;3.00;;;11.00;99.90;;;;;;5026060;28;20273;-88
2023/06/04 03:22:53;;;;;;;4.27;3.03;;;10.90;99.90;;;;;;5019836;28;20206;-86
2023/06/04 03:25:20;;;;;;;7.07;3.50;;;11.00;99.90;;;;;;5029267;28;20215;-87
2023/06/04 03:27:48;;;;;;;4.63;2.90;;;10.90;99.90;;;;;;5029226;28;20209;-84
2023/06/04 03:30:18;;;;;;;4.20;2.57;;;10.90;99.90;;;;;;5029655;28;20213;-87
2023/06/04 03:32:47;;;;;;;4.87;3.00;;;10.90;99.90;;;;;;5028925;28;20213;-88
2023/06/04 03:35:14;;;;;;;6.37;3.23;;;10.90;99.90;;;;;;5025801;28;20674;-88
2023/06/04 03:37:45;;;;;;;6.13;3.20;;;10.80;99.90;;;;;;5031513;28;20294;-87
2023/06/04 03:40:13;;;;;;;4.00;3.03;;;10.90;99.90;;;;;;5024991;28;20223;-86
2023/06/04 03:42:41;;;;;;;7.20;2.97;;;10.90;99.90;;;;;;5025246;28;20210;-88
2023/06/04 03:45:12;;;;;;;6.53;3.63;;;10.90;99.90;;;;;;5031490;28;20213;-87
2023/06/04 03:47:42;;;;;;;8.93;3.73;;;11.00;99.90;;;;;;5022116;28;20238;-88
2023/06/04 03:50:10;;;;;;;7.20;3.37;;;10.90;99.90;;;;;;5025560;28;20201;-88
2023/06/04 03:52:37;;;;;;;6.23;3.30;;;11.00;99.90;;;;;;5045341;28;20312;-87
2023/06/04 03:55:10;;;;;;;9.23;3.70;;;11.00;99.90;;;;;;5027568;28;20582;-87
2023/06/04 03:57:38;;;;;;;6.70;3.60;;;11.00;99.90;;;;;;5040288;28;20263;-86
2023/06/04 04:00:12;;;;;;;4.63;3.13;;;11.00;99.90;;;;;;5030009;28;20221;-85
2023/06/04 04:02:45;;;;;;;7.33;3.40;;;11.00;99.90;;;;;;5053026;28;20229;-87
2023/06/04 04:05:13;;;;;;;6.13;3.60;;;11.00;99.90;;;;;;5058883;28;20221;-86
2023/06/04 04:07:42;;;;;;;7.57;4.00;;;11.00;99.90;;;;;;5060150;28;21516;-86
2023/06/04 04:10:11;;;;;;;4.57;3.57;;;11.10;99.90;;;;;;5044291;28;20206;-87
2023/06/04 04:12:50;;;;;;;;;;;;;;;;;;;;;
2023/06/04 04:15:23;;;;;;;5.73;3.57;;;11.10;99.90;;;;;;5049177;28;20219;-87
2023/06/04 04:17:50;;;;;;;7.33;4.27;;;11.20;99.90;;;;;;5050070;28;20252;-85
2023/06/04 04:20:21;;;;;;;6.33;3.40;;;11.20;99.90;;;;;;5055797;28;20313;-87
2023/06/04 04:22:52;;;;;;;9.70;3.63;;;11.20;99.90;;;;;;5039252;28;20212;-88
2023/06/04 04:25:21;;;;;;;6.73;3.67;;;11.20;99.90;;;;;;5030434;28;20313;-87
2023/06/04 04:27:50;;;;;;;9.03;4.03;;;11.20;99.90;;;;;;5040373;28;20191;-89
2023/06/04 04:30:18;;;;;;;9.00;3.77;;;11.30;99.90;;;;;;5053520;28;20203;-89
2023/06/04 04:33:03;;;;;;;8.50;3.67;;;11.30;99.90;;;;;;5051926;28;20233;-88
2023/06/04 04:35:41;;;;;;;8.03;3.43;;;11.40;99.90;;;;;;5043225;28;20195;-87
2023/06/04 04:38:11;;;;;;;6.97;3.63;;;11.40;99.90;;;;;;5038845;28;20213;-88
2023/06/04 04:40:38;;;;;;;5.87;3.60;;;11.50;99.90;;;;;;5032586;28;20199;-86
2023/06/04 04:43:05;;;;;;;7.50;3.37;;;11.50;99.90;;;;;;5065703;28;20211;-87
2023/06/04 04:45:34;;;;;;;7.77;4.13;;;11.50;99.90;;;;;;5046382;28;20236;-86
2023/06/04 04:48:04;;;;;;;5.97;3.83;;;11.60;99.90;;;;;;5049030;28;20242;-88
2023/06/04 04:50:31;;;;;;;10.30;3.73;;;11.60;99.90;;;;;;5041005;28;20212;-88
2023/06/04 04:52:58;;;;;;;7.33;3.80;;;11.60;99.90;;;;;;5038441;28;20254;-86
2023/06/04 04:55:31;;;;;;;6.13;3.80;;;11.70;99.90;;;;;;5032601;28;20309;-87
2023/06/04 04:58:00;;;;;;;8.10;3.90;;;11.70;99.90;;;;;;5039077;28;20212;-86
2023/06/04 05:00:27;;;;;;;5.00;3.20;;;11.90;99.90;;;;;;5038135;28;20202;-86
2023/06/04 05:02:56;;;;;;;8.30;3.57;;;11.80;99.90;;;;;;5047441;28;20211;-87
2023/06/04 05:05:23;;;;;;;7.23;3.83;;;11.90;99.90;;;;;;5047383;28;20833;-88
2023/06/04 05:07:50;;;;;;;6.17;4.00;;;12.00;99.90;;;;;;5047067;28;20208;-86
2023/06/04 05:10:17;;;;;;;8.33;3.50;;;12.00;99.90;;;;;;5045730;28;20204;-85
2023/06/04 05:13:00;;;;;;;8.47;3.73;;;12.10;99.90;;;;;;5043790;28;20241;-87
2023/06/04 05:15:27;;;;;;;9.30;4.13;;;12.10;99.90;;;;;;5037839;28;20282;-87
2023/06/04 05:17:56;;;;;;;7.90;4.47;;;12.20;99.90;;;;;;5042566;28;20236;-88
2023/06/04 05:20:23;;;;;;;7.37;3.40;;;12.30;99.90;;;;;;5044901;28;20193;-86
2023/06/04 05:22:51;;;;;;;8.80;4.37;;;12.30;99.90;;;;;;5040149;28;20205;-86
2023/06/04 05:25:19;;;;;;;5.90;3.70;;;12.40;99.90;;;;;;5042598;28;20225;-86
2023/06/04 05:27:48;;;;;;;8.60;3.70;;;12.60;99.90;;;;;;5034272;28;20850;-86
2023/06/04 05:30:17;;;;;;;8.70;3.50;;;13.40;99.90;;;;;;5039944;28;20213;-85
2023/06/04 05:32:44;;;;;;;5.93;2.90;;;14.40;99.90;;;;;;5032926;28;20300;-84
2023/06/04 05:35:18;;;;;;;5.53;3.37;;;15.50;99.90;;;;;;5027876;28;20212;-86
2023/06/04 05:37:53;;;;;;;5.97;3.20;;;16.70;99.90;;;;;;5029237;28;20212;-85
2023/06/04 05:40:26;;;;;;;5.60;2.40;;;17.80;99.90;;;;;;5032970;28;20253;-86
2023/06/04 05:42:55;;;;;;;5.30;2.38;;;18.70;99.90;;;;;;5025704;28;20210;-86
2023/06/04 05:45:25;;;;;;;4.00;2.67;;;19.60;99.90;;;;;;5036285;28;20237;-87
2023/06/04 05:47:58;;;;;;;6.72;3.25;;;20.10;99.90;;;;;;5048400;28;20365;-85
2023/06/04 05:50:32;;;;;;;9.25;2.90;;;20.70;99.90;;;;;;5050099;28;20273;-87
2023/06/04 05:53:02;;;;;;;4.45;2.80;;;21.30;99.90;;;;;;5050217;28;20224;-86
2023/06/04 05:55:49;;;;;;;4.18;2.80;;;21.90;99.90;;;;;;5070047;28;20199;-84
2023/06/04 05:58:18;;;;;;;7.47;2.83;;;22.40;99.90;;;;;;5067004;28;20705;-87
2023/06/04 06:00:49;;;;;;;6.15;2.65;;;22.80;99.90;;;;;;5054651;28;20231;-88
2023/06/04 06:03:17;;;;;;;8.77;2.63;;;23.30;99.90;;;;;;5067178;28;20204;-88
2023/06/04 06:05:50;;;;;;;5.30;2.90;;;23.70;99.90;;;;;;5051044;28;20228;-89
2023/06/04 06:08:19;;;;;;;4.53;2.38;;;23.90;99.90;;;;;;5069119;28;20201;-89
2023/06/04 06:10:47;;;;;;;5.32;2.70;;;24.10;99.90;;;;;;5053991;28;20273;-87
2023/06/04 06:13:48;;;;;;;3.75;2.35;;;24.30;99.90;;;;;;5054193;28;20232;-89
2023/06/04 06:16:16;;;;;;;5.53;2.60;;;24.60;99.90;;;;;;5054671;28;20311;-87
2023/06/04 06:18:53;;;;;;;6.07;2.58;;;24.90;99.90;;;;;;5054091;28;20204;-90
2023/06/04 06:21:49;;;;;;;7.50;2.60;;;24.90;99.90;;;;;;5058314;28;20283;-89
2023/06/04 06:24:19;;;;;;;4.28;2.58;;;25.00;99.90;;;;;;5066988;28;20287;-87
2023/06/04 06:26:46;;;;;;;5.57;2.63;;;25.30;99.90;;;;;;5065582;28;20205;-86
2023/06/04 06:29:13;;;;;;;8.60;3.15;;;25.50;99.90;;;;;;5066994;28;20205;-86
2023/06/04 06:31:50;;;;;;;4.47;2.72;;;25.30;99.70;;;;;;5063078;28;20228;-87
2023/06/04 06:34:22;;;;;;;5.20;2.85;;;25.20;99.50;;;;;;5047369;28;20228;-87
2023/06/04 06:36:49;;;;;;;4.07;2.25;;;25.40;99.40;;;;;;5056655;28;20203;-87
2023/06/04 06:39:24;;;;;;;6.70;2.80;;;25.60;98.60;;;;;;5071719;28;20197;-86
2023/06/04 06:41:58;;;;;;;8.75;2.63;;;25.80;97.80;;;;;;5064122;28;20205;-88
2023/06/04 06:44:35;;;;;;;5.95;3.20;;;25.90;97.00;;;;;;5070006;28;20286;-89
2023/06/04 06:47:03;;;;;;;6.20;2.60;;;26.10;97.00;;;;;;5053799;28;20274;-92
2023/06/04 06:49:36;;;;;;;6.00;2.55;;;26.20;96.60;;;;;;5053821;28;20222;-87
2023/06/04 06:52:23;;;;;;;5.20;3.08;;;26.40;95.90;;;;;;5073469;28;20232;-89
2023/06/04 06:54:50;;;;;;;3.67;2.63;;;26.50;94.90;;;;;;5058116;28;20640;-87
2023/06/04 06:57:17;;;;;;;8.32;2.55;;;26.60;95.30;;;;;;5061155;28;20907;-87
2023/06/04 06:59:46;;;;;;;3.38;2.53;;;26.70;94.70;;;;;;5046440;28;20196;-84
2023/06/04 07:02:13;;;;;;;4.18;2.90;;;26.60;94.20;;;;;;5050320;28;20223;-87
2023/06/04 07:04:43;;;;;;;5.80;2.80;;;26.60;94.10;;;;;;5049253;28;20274;-88
2023/06/04 07:07:12;;;;;;;4.68;2.22;;;26.60;94.10;;;;;;5046155;28;20229;-87
2023/06/04 07:09:41;;;;;;;5.20;2.63;;;26.80;93.80;;;;;;5049361;28;20215;-84
2023/06/04 07:12:08;;;;;;;3.97;2.20;;;27.10;93.30;;;;;;5062858;28;20211;-85
2023/06/04 07:14:35;;;;;;;7.88;2.70;;;27.30;92.90;;;;;;5043427;28;20225;-84
2023/06/04 07:17:03;;;;;;;6.22;2.85;;;27.30;92.50;;;;;;5063568;28;20274;-88
2023/06/04 07:19:31;;;;;;;6.15;2.80;;;27.00;92.40;;;;;;5059073;28;20865;-85
2023/06/04 07:22:10;;;;;;;4.93;2.28;;;26.90;92.40;;;;;;5046747;28;20204;-86
2023/06/04 07:24:40;;;;;;;4.97;2.22;;;26.90;92.50;;;;;;5050030;28;20200;-88
2023/06/04 07:27:12;;;;;;;5.85;2.42;;;27.20;91.80;;;;;;5052159;28;20208;-87
2023/06/04 07:29:42;;;;;;;5.00;2.30;;;27.20;91.50;;;;;;5050002;28;20212;-86
2023/06/04 07:32:10;;;;;;;7.00;2.08;;;27.00;91.30;;;;;;5066522;28;20697;-86
2023/06/04 07:34:39;;;;;;;4.18;1.90;;;26.90;91.40;;;;;;5065782;28;20705;-85
2023/06/04 07:37:10;;;;;;;4.60;2.50;;;27.00;90.80;;;;;;5064154;28;20205;-87
2023/06/04 07:39:38;;;;;;;5.07;2.33;;;27.00;90.50;;;;;;5048406;28;20228;-86
2023/06/04 07:42:07;;;;;;;3.88;2.15;;;27.20;90.20;;;;;;5051213;28;20209;-86
2023/06/04 07:44:40;;;;;;;6.90;2.50;;;27.10;90.10;;;;;;5050825;28;20204;-86
2023/06/04 07:47:07;;;;;;;4.88;2.40;;;27.20;90.30;;;;;;5062528;28;20279;-85
2023/06/04 07:49:35;;;;;;;6.05;2.22;;;27.30;89.30;;;;;;5066193;28;20726;-86
2023/06/04 07:52:16;;;;;;;5.93;1.92;;;27.30;89.00;;;;;;5046957;28;20630;-86
2023/06/04 07:54:52;;;;;;;4.47;2.15;;;27.40;88.40;;;;;;5070124;28;20228;-89
2023/06/04 07:57:19;;;;;;;4.50;2.30;;;27.40;86.40;;;;;;5069467;28;20200;-87
2023/06/04 07:59:47;;;;;;;3.88;1.75;;;27.40;87.10;;;;;;5057022;28;20974;-86
2023/06/04 08:02:14;;;;;;;5.55;2.60;;;27.40;87.20;;;;;;5049375;28;20269;-86
2023/06/04 08:04:42;;;;;;;6.18;2.10;;;27.40;86.80;;;;;;5049100;28;20205;-88
2023/06/04 08:07:09;;;;;;;4.60;2.10;;;27.30;87.30;;;;;;5057309;28;20220;-88
2023/06/04 08:09:37;;;;;;;3.10;1.98;;;27.30;87.00;;;;;;5064347;28;20207;-87
2023/06/04 08:12:08;;;;;;;3.47;1.80;;;27.30;86.20;;;;;;5055134;28;20205;-88
2023/06/04 08:14:37;;;;;;;4.13;2.22;;;27.40;85.70;;;;;;5063011;28;20320;-86
2023/06/04 08:17:07;;;;;;;5.03;2.17;;;27.30;85.30;;;;;;5047456;28;20701;-88
2023/06/04 08:19:40;;;;;;;4.22;1.90;;;26.80;85.20;;;;;;5066154;28;20258;-87
2023/06/04 08:22:11;;;;;;;6.50;1.75;;;26.60;85.60;;;;;;5066492;28;20201;-89
2023/06/04 08:24:39;;;;;;;4.85;1.95;;;26.50;86.00;;;;;;5070792;28;20216;-86
2023/06/04 08:27:08;;;;;;;3.08;1.73;;;26.30;85.60;;;;;;5048193;28;20204;-85
2023/06/04 08:29:36;;;;;;;2.58;1.48;;;26.30;85.00;;;;;;5061291;28;20295;-86
2023/06/04 08:32:04;;;;;;;4.15;1.77;;;26.20;85.20;;;;;;5054816;28;20304;-87
2023/06/04 08:34:33;;;;;;;3.15;1.67;;;26.30;85.50;;;;;;5047651;28;20322;-86
2023/06/04 08:37:02;;;;;;;2.40;1.65;;;26.60;85.90;;;;;;5048083;28;20216;-86
2023/06/04 08:39:29;;;;;;;4.63;2.03;;;27.00;84.60;;;;;;5058866;28;20209;-86
2023/06/04 08:42:02;;;;;;;2.75;1.55;;;27.20;83.80;;;;;;5044559;28;20231;-86
2023/06/04 08:44:31;;;;;;;2.80;1.48;;;27.30;83.50;;;;;;5049959;28;20849;-84
2023/06/04 08:47:06;;;;;;;1.80;1.40;;;27.30;83.80;;;;;;5062418;28;20220;-85
2023/06/04 08:49:38;;;;;;;4.65;1.60;;;27.10;82.80;;;;;;5015033;28;20222;-86
2023/06/04 08:52:06;;;;;;;2.95;1.60;;;27.20;82.60;;;;;;5025358;28;20281;-86
2023/06/04 08:54:34;;;;;;;3.17;1.92;;;27.40;82.30;;;;;;5041152;28;20229;-84
2023/06/04 08:57:02;;;;;;;3.28;1.50;;;27.50;82.60;;;;;;5039808;28;20268;-84
2023/06/04 08:59:32;;;;;;;3.85;1.67;;;27.60;81.90;;;;;;5036990;28;20229;-84
2023/06/04 09:02:04;;;;;;;2.58;1.60;;;27.30;81.80;;;;;;5037934;28;20217;-84
2023/06/04 09:04:32;;;;;;;5.07;1.52;;;27.20;81.70;;;;;;5025133;28;20734;-85
2023/06/04 09:07:05;;;;;;;4.80;1.63;;;27.20;81.10;;;;;;5032594;28;20214;-86
2023/06/04 09:09:42;;;;;;;3.13;1.60;;;27.10;80.30;;;;;;5021559;28;20869;-86
2023/06/04 09:12:25;;;;;;;2.95;1.45;;;27.00;81.00;;;;;;5029516;28;20208;-87
2023/06/04 09:14:58;;;;;;;3.83;1.50;;;27.10;80.20;;;;;;5027052;28;20225;-85
2023/06/04 09:17:32;;;;;;;3.85;1.38;;;27.20;80.50;;;;;;5038308;28;20220;-87
2023/06/04 09:20:00;;;;;;;2.90;1.30;;;27.40;79.50;;;;;;5031361;28;20268;-86
2023/06/04 09:22:37;;;;;;;2.67;1.60;;;27.60;78.50;;;;;;5033886;28;20666;-86
2023/06/04 09:25:07;;;;;;;1.85;1.23;;;27.30;79.80;;;;;;5035614;28;20205;-84
2023/06/04 09:27:39;;;;;;;1.90;1.35;;;27.10;78.50;;;;;;5039980;28;20211;-87
2023/06/04 09:30:10;;;;;;;3.97;1.40;;;26.80;78.50;;;;;;5041116;28;20204;-84
2023/06/04 09:32:37;;;;;;;2.67;1.40;;;26.50;78.70;;;;;;5032683;28;20224;-83
2023/06/04 09:35:13;;;;;;;3.83;1.20;;;26.10;77.90;;;;;;5027880;28;20225;-84
2023/06/04 09:38:02;;;;;;;2.13;1.20;;;25.90;77.40;;;;;;5037329;28;20670;-92
2023/06/04 09:40:38;;;;;;;2.22;1.35;;;25.70;81.30;;;;;;5034628;28;20281;-80
2023/06/04 09:43:06;;;;;;;3.13;1.30;;;25.70;80.40;;;;;;5019795;28;20201;-79
2023/06/04 09:45:38;;;;;;;2.83;1.30;;;25.80;81.20;;;;;;5038204;28;20661;-91
2023/06/04 09:48:05;;;;;;;2.83;1.40;;;25.80;80.60;;;;;;5040950;28;20236;-81
2023/06/04 09:50:38;;;;;;;1.63;1.52;;;25.90;80.10;;;;;;5051600;28;20264;-82
2023/06/04 09:53:22;;;;;;;1.98;1.20;;;25.90;79.30;;;;;;5061949;28;20231;-85
2023/06/04 09:56:00;;;;;;;1.63;1.13;;;25.90;78.40;;;;;;5063643;28;20227;-83
2023/06/04 09:58:31;;;;;;;1.80;1.10;;;26.00;77.80;;;;;;5050845;28;20246;-86
2023/06/04 10:01:00;;;;;;;1.48;1.10;;;26.10;78.90;;;;;;5050217;28;20235;-85
2023/06/04 10:03:34;;;;;;;2.72;1.15;;;26.10;78.60;;;;;;5064170;28;20204;-85
2023/06/04 10:06:06;;;;;;;1.08;0.98;;;26.10;78.20;;;;;;5064860;28;20227;-81
2023/06/04 10:08:36;;;;;;;1.73;0.93;;;26.00;77.80;;;;;;5063102;28;20213;-81
2023/06/04 10:11:05;;;;;;;3.42;1.40;;;26.00;78.20;;;;;;5066432;28;20291;-80
2023/06/04 10:13:45;;;;;;;3.60;1.30;;;26.00;78.90;;;;;;5060742;28;20641;-81
2023/06/04 10:16:13;;;;;;;1.80;1.10;;;26.10;78.80;;;;;;5062429;28;20236;-78
2023/06/04 10:18:56;;;;;;;2.13;1.48;;;26.10;78.80;;;;;;5065228;28;20200;-83
2023/06/04 10:21:24;;;;;;;4.90;1.23;;;26.00;76.90;;;;;;5049057;28;20215;-85
2023/06/04 10:23:52;;;;;;;1.80;0.85;;;26.00;76.80;;;;;;5046993;28;20216;-83
2023/06/04 10:26:19;;;;;;;2.28;1.17;;;26.10;78.00;;;;;;5059791;28;20299;-83
2023/06/04 10:28:46;;;;;;;5.05;1.13;;;26.10;77.00;;;;;;5063169;28;20213;-84
2023/06/04 10:31:17;;;;;;;3.22;1.10;;;26.20;77.20;;;;;;5063013;28;20213;-84
2023/06/04 10:33:48;;;;;;;1.83;1.00;;;26.10;77.20;;;;;;5048755;28;20254;-86
2023/06/04 10:36:22;;;;;;;2.88;1.20;;;26.10;76.90;;;;;;5049860;28;20206;-83
2023/06/04 10:38:51;;;;;;;2.72;1.02;;;26.10;76.20;;;;;;5066486;28;20754;-83
2023/06/04 10:41:23;;;;;;;3.75;1.17;;;26.10;76.20;;;;;;5048732;28;20200;-85
2023/06/04 10:44:00;;;;;;;2.97;1.20;;;26.00;75.40;;;;;;5051304;28;20320;-87
2023/06/04 10:46:41;;;;;;;3.20;1.10;;;26.20;74.50;;;;;;5066963;28;20770;-90
2023/06/04 10:49:12;;;;;;;2.58;1.17;;;26.20;74.50;;;;;;5062854;28;20237;-84
2023/06/04 10:51:40;;;;;;;2.63;1.10;;;26.30;74.90;;;;;;5067805;28;20208;-81
2023/06/04 10:54:08;;;;;;;3.63;1.40;;;26.30;76.20;;;;;;5060532;28;20321;-86
2023/06/04 10:56:36;;;;;;;3.33;1.10;;;26.30;75.10;;;;;;5074755;28;20200;-87
2023/06/04 10:59:14;;;;;;;1.33;1.05;;;26.30;75.00;;;;;;5048248;28;20205;-86
2023/06/04 11:01:48;;;;;;;1.23;0.95;;;26.20;76.40;;;;;;5060176;28;20265;-85
2023/06/04 11:04:25;;;;;;;2.97;1.00;;;26.30;74.80;;;;;;5065618;28;20215;-86
2023/06/04 11:07:08;;;;;;;2.17;1.10;;;26.30;71.10;;;;;;5051763;28;20219;-86
2023/06/04 11:09:56;;;;;;;2.50;0.98;;;26.40;70.00;;;;;;5063933;28;20211;-85
2023/06/04 11:12:23;;;;;;;2.00;1.15;;;26.30;70.10;;;;;;5066648;28;20219;-85
2023/06/04 11:14:57;;;;;;;1.40;1.10;;;26.40;69.40;;;;;;5059090;28;20990;-88
2023/06/04 11:17:24;;;;;;;3.13;1.30;;;26.40;70.40;;;;;;5051952;28;20247;-87
2023/06/04 11:19:55;;;;;;;1.50;0.98;;;26.40;71.00;;;;;;5057560;28;20205;-85
2023/06/04 11:22:23;;;;;;;3.13;1.20;;;26.20;72.10;;;;;;5061988;28;20212;-84
2023/06/04 11:24:58;;;;;;;3.67;1.08;;;26.30;72.10;;;;;;5051502;28;20838;-84
2023/06/04 11:27:26;;;;;;;2.75;1.05;;;26.40;70.90;;;;;;5053017;28;20210;-84
2023/06/04 11:30:04;;;;;;;1.45;1.10;;;26.50;70.20;;;;;;5054905;28;20291;-84
2023/06/04 11:32:31;;;;;;;2.40;1.10;;;26.50;70.00;;;;;;5070650;28;20243;-86
2023/06/04 11:35:06;;;;;;;1.77;1.25;;;26.60;69.30;;;;;;5043521;28;20225;-86
2023/06/04 11:37:34;;;;;;;1.42;0.90;;;26.70;70.60;;;;;;5045767;28;20676;-84
2023/06/04 11:40:01;;;;;;;2.22;1.10;;;26.80;69.80;;;;;;5061940;28;20211;-84
2023/06/04 11:42:29;;;;;;;2.13;1.17;;;27.00;69.60;;;;;;5060469;28;20197;-85
2023/06/04 11:44:57;;;;;;;1.27;1.02;;;27.10;69.00;;;;;;5043632;28;20315;-84
2023/06/04 11:47:25;;;;;;;2.63;1.35;;;26.90;68.90;;;;;;5064508;28;20208;-86
2023/06/04 11:49:58;;;;;;;2.05;1.05;;;26.90;69.20;;;;;;5065029;28;20224;-84
2023/06/04 11:52:25;;;;;;;2.75;1.23;;;26.90;68.50;;;;;;5058345;28;20211;-85
2023/06/04 11:54:52;;;;;;;2.78;1.25;;;27.00;68.00;;;;;;5043798;28;20294;-85
2023/06/04 11:57:21;;;;;;;2.63;1.10;;;27.00;68.50;;;;;;5065057;28;20313;-86
2023/06/04 11:59:48;;;;;;;3.45;1.30;;;27.20;68.50;;;;;;5065260;28;20205;-84
2023/06/04 12:02:19;;;;;;;2.03;1.20;;;27.00;67.60;;;;;;5063542;28;20220;-85
2023/06/04 12:04:50;;;;;;;2.15;1.05;;;27.10;68.20;;;;;;5049183;28;20697;-86
2023/06/04 12:07:24;;;;;;;1.75;1.00;;;27.20;67.40;;;;;;5062906;28;20220;-83
2023/06/04 12:09:51;;;;;;;2.55;1.20;;;27.20;67.30;;;;;;5062066;28;20988;-85
2023/06/04 12:12:23;;;;;;;1.77;1.10;;;27.20;66.90;;;;;;5062258;28;20196;-85
2023/06/04 12:14:58;;;;;;;3.33;1.27;;;27.30;67.50;;;;;;5059922;28;20232;-86
2023/06/04 12:17:25;;;;;;;2.72;0.98;;;27.30;68.00;;;;;;5061851;28;20277;-86
2023/06/04 12:19:56;;;;;;;2.65;1.20;;;27.30;67.40;;;;;;5065352;28;20277;-88
2023/06/04 12:22:23;;;;;;;1.52;1.00;;;27.20;67.10;;;;;;5075979;28;20280;-87
2023/06/04 12:24:53;;;;;;;3.08;1.02;;;27.10;68.20;;;;;;5083088;28;20215;-86
2023/06/04 12:27:21;;;;;;;4.70;1.60;;;27.20;67.80;;;;;;5066638;28;20211;-87
2023/06/04 12:30:09;;;;;;;1.77;1.20;;;27.30;67.90;;;;;;5070135;28;20911;-87
2023/06/04 12:33:07;;;;;;;2.88;1.20;;;27.20;67.80;;;;;;5063060;28;20217;-88
2023/06/04 12:35:39;;;;;;;1.77;1.40;;;27.30;67.30;;;;;;5057414;28;20228;-86
2023/06/04 12:38:08;;;;;;;3.92;1.40;;;27.20;67.70;;;;;;5052818;28;20225;-88
2023/06/04 12:40:37;;;;;;;2.72;1.20;;;27.30;68.50;;;;;;5050749;28;20254;-87
2023/06/04 12:43:06;;;;;;;1.67;1.40;;;27.20;68.00;;;;;;5071550;28;20209;-87
2023/06/04 12:45:36;;;;;;;1.85;1.10;;;27.30;67.90;;;;;;5072834;28;20216;-87
2023/06/04 12:48:03;;;;;;;1.88;1.15;;;27.30;65.90;;;;;;5048506;28;20257;-81
2023/06/04 12:50:30;;;;;;;2.80;1.30;;;27.30;66.40;;;;;;5043800;28;20212;-82
2023/06/04 12:52:57;;;;;;;2.45;1.05;;;27.30;66.90;;;;;;5044684;28;20225;-86
2023/06/04 12:55:25;;;;;;;3.42;1.40;;;27.30;66.90;;;;;;5048328;28;20698;-87
2023/06/04 12:57:54;;;;;;;2.80;1.20;;;27.30;66.00;;;;;;5046816;28;20233;-87
2023/06/04 13:00:21;;;;;;;2.13;1.05;;;27.30;65.80;;;;;;5046495;28;20214;-87
2023/06/04 13:02:49;;;;;;;4.50;1.58;;;27.50;66.50;;;;;;5049684;28;21028;-87
2023/06/04 13:05:16;;;;;;;1.92;1.17;;;27.60;66.60;;;;;;5044780;28;20210;-83
2023/06/04 13:07:43;;;;;;;2.55;1.45;;;27.50;66.20;;;;;;5043139;28;20213;-85